createdAt,value
2023-10-27T00:00:44.988Z,10.82
2023-10-27T00:01:45.133Z,10.80
2023-10-27T00:02:45.344Z,10.84
2023-10-27T00:03:45.516Z,10.83
2023-10-27T00:04:45.725Z,10.82
2023-10-27T00:05:45.831Z,10.80
2023-10-27T00:06:45.984Z,10.79
2023-10-27T00:07:46.113Z,10.79
2023-10-27T00:08:46.312Z,10.80
2023-10-27T00:09:46.473Z,10.83
2023-10-27T00:10:46.615Z,10.83
2023-10-27T00:11:46.760Z,10.82
2023-10-27T00:12:46.918Z,10.83
2023-10-27T00:13:47.068Z,10.84
2023-10-27T00:14:47.227Z,10.86
2023-10-27T00:15:47.384Z,10.87
2023-10-27T00:16:47.543Z,10.86
2023-10-27T00:17:47.782Z,10.86
2023-10-27T00:18:47.991Z,10.86
2023-10-27T00:19:48.072Z,10.84
2023-10-27T00:20:48.220Z,10.84
2023-10-27T00:21:48.355Z,10.84
2023-10-27T00:22:48.504Z,10.87
2023-10-27T00:23:48.640Z,10.89
2023-10-27T00:24:48.853Z,10.87
2023-10-27T00:25:48.959Z,10.86
2023-10-27T00:26:49.180Z,10.83
2023-10-27T00:27:49.380Z,10.82
2023-10-27T00:28:49.518Z,10.82
2023-10-27T00:29:49.686Z,10.77
2023-10-27T00:30:49.879Z,10.77
2023-10-27T00:31:50.016Z,10.79
2023-10-27T00:32:50.321Z,10.83
2023-10-27T00:33:50.396Z,10.82
2023-10-27T00:34:50.696Z,10.84
2023-10-27T00:35:51.870Z,10.83
2023-10-27T00:36:50.918Z,10.80
2023-10-27T00:37:51.050Z,10.77
2023-10-27T00:38:51.240Z,10.77
2023-10-27T00:39:51.434Z,10.77
2023-10-27T00:40:51.586Z,10.76
2023-10-27T00:41:51.745Z,10.75
2023-10-27T00:42:51.909Z,10.75
2023-10-27T00:43:52.103Z,10.75
2023-10-27T00:44:52.265Z,10.75
2023-10-27T00:45:52.447Z,10.76
2023-10-27T00:46:52.559Z,10.75
2023-10-27T00:47:52.702Z,10.75
2023-10-27T00:48:53.017Z,10.72
2023-10-27T00:49:53.067Z,10.72
2023-10-27T00:50:53.209Z,10.71
2023-10-27T00:51:53.369Z,10.69
2023-10-27T00:52:53.497Z,10.71
2023-10-27T00:53:53.659Z,10.75
2023-10-27T00:54:53.845Z,10.77
2023-10-27T00:55:53.956Z,10.72
2023-10-27T00:56:54.092Z,10.71
2023-10-27T00:57:54.244Z,10.72
2023-10-27T00:58:54.388Z,10.75
2023-10-27T00:59:54.540Z,10.75
2023-10-27T01:00:54.722Z,10.71
2023-10-27T01:01:54.846Z,10.72
2023-10-27T01:02:55.063Z,10.71
2023-10-27T01:03:55.269Z,10.72
2023-10-27T01:04:55.401Z,10.69
2023-10-27T01:05:55.481Z,10.69
2023-10-27T01:06:55.665Z,10.68
2023-10-27T01:07:55.786Z,10.69
2023-10-27T01:08:55.930Z,10.68
2023-10-27T01:09:56.127Z,10.69
2023-10-27T01:10:58.086Z,10.71
2023-10-27T01:11:56.369Z,10.72
2023-10-27T01:12:56.515Z,10.77
2023-10-27T01:13:56.662Z,10.79
2023-10-27T01:14:56.823Z,10.83
2023-10-27T01:15:56.987Z,10.83
2023-10-27T01:16:57.122Z,10.84
2023-10-27T01:17:57.287Z,10.86
2023-10-27T01:18:57.539Z,10.86
2023-10-27T01:19:57.715Z,10.83
2023-10-27T01:20:57.749Z,10.82
2023-10-27T01:21:57.905Z,10.79
2023-10-27T01:22:58.092Z,10.80
2023-10-27T01:23:58.236Z,10.80
2023-10-27T01:24:58.423Z,10.79
2023-10-27T01:25:58.539Z,10.82
2023-10-27T01:26:58.682Z,10.80
2023-10-27T01:27:58.913Z,10.79
2023-10-27T01:28:59.026Z,10.77
2023-10-27T01:29:59.194Z,10.82
2023-10-27T01:30:59.370Z,10.82
2023-10-27T01:31:59.505Z,10.83
2023-10-27T01:32:59.740Z,10.83
2023-10-27T01:34:00.018Z,10.82
2023-10-27T01:35:00.102Z,10.77
2023-10-27T01:36:00.070Z,10.75
2023-10-27T01:37:00.332Z,10.76
2023-10-27T01:38:00.382Z,10.76
2023-10-27T01:39:00.617Z,10.75
2023-10-27T01:40:00.747Z,10.71
2023-10-27T01:41:00.850Z,10.72
2023-10-27T01:42:01.014Z,10.69
2023-10-27T01:43:01.180Z,10.71
2023-10-27T01:44:01.297Z,10.72
2023-10-27T01:45:01.455Z,10.75
2023-10-27T01:46:01.618Z,10.75
2023-10-27T01:47:01.812Z,10.75
2023-10-27T01:48:01.936Z,10.77
2023-10-27T01:49:02.223Z,10.75
2023-10-27T01:50:02.238Z,10.72
2023-10-27T01:51:02.378Z,10.69
2023-10-27T01:52:02.542Z,10.68
2023-10-27T01:53:02.680Z,10.68
2023-10-27T01:54:02.836Z,10.71
2023-10-27T01:55:03.016Z,10.71
2023-10-27T01:56:03.151Z,10.72
2023-10-27T01:57:03.296Z,10.72
2023-10-27T01:58:03.505Z,10.76
2023-10-27T01:59:03.589Z,10.77
2023-10-27T02:00:03.737Z,10.76
2023-10-27T02:01:03.918Z,10.75
2023-10-27T02:02:04.037Z,10.72
2023-10-27T02:03:04.313Z,10.72
2023-10-27T02:04:04.442Z,10.75
2023-10-27T02:05:04.543Z,10.75
2023-10-27T02:06:04.643Z,10.72
2023-10-27T02:07:04.878Z,10.69
2023-10-27T02:08:05.001Z,10.69
2023-10-27T02:09:05.141Z,10.69
2023-10-27T02:10:05.408Z,10.71
2023-10-27T02:11:05.511Z,10.72
2023-10-27T02:12:05.639Z,10.72
2023-10-27T02:13:05.786Z,10.69
2023-10-27T02:14:05.929Z,10.65
2023-10-27T02:15:06.097Z,10.64
2023-10-27T02:16:06.298Z,10.64
2023-10-27T02:17:06.482Z,10.64
2023-10-27T02:18:06.594Z,10.64
2023-10-27T02:19:06.785Z,10.62
2023-10-27T02:20:06.873Z,10.61
2023-10-27T02:21:07.028Z,10.61
2023-10-27T02:22:07.204Z,10.61
2023-10-27T02:23:07.314Z,10.59
2023-10-27T02:24:07.458Z,10.59
2023-10-27T02:25:07.695Z,10.61
2023-10-27T02:26:07.783Z,10.62
2023-10-27T02:27:07.931Z,10.64
2023-10-27T02:28:08.150Z,10.64
2023-10-27T02:29:08.292Z,10.65
2023-10-27T02:30:08.449Z,10.65
2023-10-27T02:31:08.627Z,10.67
2023-10-27T02:32:08.731Z,10.65
2023-10-27T02:33:08.902Z,10.65
2023-10-27T02:34:09.108Z,10.64
2023-10-27T02:35:09.198Z,10.61
2023-10-27T02:36:09.377Z,10.61
2023-10-27T02:37:09.570Z,10.62
2023-10-27T02:38:09.709Z,10.65
2023-10-27T02:39:09.850Z,10.69
2023-10-27T02:40:10.034Z,10.72
2023-10-27T02:41:10.154Z,10.71
2023-10-27T02:42:10.302Z,10.62
2023-10-27T02:43:10.488Z,10.64
2023-10-27T02:44:10.599Z,10.62
2023-10-27T02:45:10.973Z,10.62
2023-10-27T02:46:10.965Z,10.64
2023-10-27T02:47:11.110Z,10.62
2023-10-27T02:48:11.363Z,10.61
2023-10-27T02:49:11.442Z,10.64
2023-10-27T02:50:11.585Z,10.68
2023-10-27T02:51:11.737Z,10.67
2023-10-27T02:52:11.912Z,10.61
2023-10-27T02:53:12.016Z,10.59
2023-10-27T02:54:12.171Z,10.59
2023-10-27T02:55:12.348Z,10.62
2023-10-27T02:56:12.479Z,10.61
2023-10-27T02:57:12.630Z,10.57
2023-10-27T02:58:12.805Z,10.57
2023-10-27T02:59:12.948Z,10.58
2023-10-27T03:00:13.118Z,10.59
2023-10-27T03:01:15.069Z,10.57
2023-10-27T03:02:13.410Z,10.55
2023-10-27T03:03:13.502Z,10.51
2023-10-27T03:04:13.823Z,10.53
2023-10-27T03:05:13.865Z,10.55
2023-10-27T03:06:14.002Z,10.57
2023-10-27T03:07:14.172Z,10.59
2023-10-27T03:08:14.310Z,10.62
2023-10-27T03:09:14.481Z,10.65
2023-10-27T03:10:14.665Z,10.58
2023-10-27T03:11:14.814Z,10.55
2023-10-27T03:12:14.984Z,10.49
2023-10-27T03:13:15.153Z,10.55
2023-10-27T03:14:15.311Z,10.51
2023-10-27T03:15:15.464Z,10.49
2023-10-27T03:16:15.761Z,10.49
2023-10-27T03:17:15.784Z,10.49
2023-10-27T03:18:15.969Z,10.49
2023-10-27T03:19:16.233Z,10.51
2023-10-27T03:20:16.247Z,10.55
2023-10-27T03:21:16.364Z,10.51
2023-10-27T03:22:16.546Z,10.51
2023-10-27T03:23:16.704Z,10.53
2023-10-27T03:24:16.884Z,10.57
2023-10-27T03:25:17.042Z,10.57
2023-10-27T03:26:17.213Z,10.58
2023-10-27T03:27:17.465Z,10.53
2023-10-27T03:28:17.563Z,10.53
2023-10-27T03:29:17.665Z,10.53
2023-10-27T03:30:17.830Z,10.55
2023-10-27T03:31:17.981Z,10.55
2023-10-27T03:32:18.117Z,10.51
2023-10-27T03:33:18.271Z,10.51
2023-10-27T03:34:18.477Z,10.51
2023-10-27T03:35:18.507Z,10.51
2023-10-27T03:36:18.702Z,10.51
2023-10-27T03:37:18.900Z,10.49
2023-10-27T03:38:19.099Z,10.53
2023-10-27T03:39:19.248Z,10.55
2023-10-27T03:40:19.443Z,10.57
2023-10-27T03:41:19.559Z,10.57
2023-10-27T03:42:19.704Z,10.57
2023-10-27T03:43:19.960Z,10.57
2023-10-27T03:44:20.494Z,10.58
2023-10-27T03:45:20.082Z,10.59
2023-10-27T03:46:20.271Z,10.59
2023-10-27T03:47:20.405Z,10.58
2023-10-27T03:48:20.573Z,10.61
2023-10-27T03:49:20.776Z,10.61
2023-10-27T03:50:20.906Z,10.61
2023-10-27T03:51:21.069Z,10.59
2023-10-27T03:52:21.262Z,10.61
2023-10-27T03:53:21.368Z,10.57
2023-10-27T03:54:21.553Z,10.55
2023-10-27T03:55:21.730Z,10.55
2023-10-27T03:56:21.873Z,10.53
2023-10-27T03:57:22.023Z,10.51
2023-10-27T03:58:27.341Z,10.53
2023-10-27T03:59:23.339Z,10.55
2023-10-27T04:00:22.509Z,10.58
2023-10-27T04:01:22.715Z,10.59
2023-10-27T04:02:22.854Z,10.62
2023-10-27T04:03:23.056Z,10.61
2023-10-27T04:04:23.271Z,10.59
2023-10-27T04:05:23.358Z,10.59
2023-10-27T04:06:24.525Z,10.59
2023-10-27T04:07:23.662Z,10.58
2023-10-27T04:08:23.820Z,10.57
2023-10-27T04:09:24.032Z,10.57
2023-10-27T04:10:24.247Z,10.58
2023-10-27T04:11:24.372Z,10.58
2023-10-27T04:12:24.534Z,10.58
2023-10-27T04:13:24.730Z,10.59
2023-10-27T04:14:24.872Z,10.59
2023-10-27T04:15:25.014Z,10.61
2023-10-27T04:16:25.225Z,10.59
2023-10-27T04:17:25.331Z,10.61
2023-10-27T04:18:25.506Z,10.59
2023-10-27T04:19:25.657Z,10.59
2023-10-27T04:20:25.779Z,10.57
2023-10-27T04:21:25.914Z,10.59
2023-10-27T04:22:26.110Z,10.61
2023-10-27T04:23:26.212Z,10.59
2023-10-27T04:24:26.387Z,10.58
2023-10-27T04:25:26.549Z,10.57
2023-10-27T04:26:26.676Z,10.57
2023-10-27T04:27:26.832Z,10.57
2023-10-27T04:28:27.055Z,10.55
2023-10-27T04:29:27.188Z,10.51
2023-10-27T04:30:27.344Z,10.48
2023-10-27T04:31:27.530Z,10.48
2023-10-27T04:32:27.723Z,10.48
2023-10-27T04:33:27.909Z,10.48
2023-10-27T04:34:28.117Z,10.48
2023-10-27T04:35:28.214Z,10.48
2023-10-27T04:36:28.366Z,10.46
2023-10-27T04:37:28.558Z,10.46
2023-10-27T04:38:28.692Z,10.49
2023-10-27T04:39:28.849Z,10.49
2023-10-27T04:40:29.040Z,10.51
2023-10-27T04:41:29.134Z,10.51
2023-10-27T04:42:29.284Z,10.49
2023-10-27T04:43:29.488Z,10.48
2023-10-27T04:44:29.605Z,10.49
2023-10-27T04:45:29.734Z,10.53
2023-10-27T04:46:29.936Z,10.55
2023-10-27T04:47:30.045Z,10.57
2023-10-27T04:48:30.270Z,10.57
2023-10-27T04:49:30.456Z,10.57
2023-10-27T04:50:31.502Z,10.55
2023-10-27T04:51:30.666Z,10.51
2023-10-27T04:52:30.879Z,10.53
2023-10-27T04:53:31.009Z,10.51
2023-10-27T04:54:31.188Z,10.53
2023-10-27T04:55:31.358Z,10.51
2023-10-27T04:56:31.471Z,10.49
2023-10-27T04:57:31.608Z,10.49
2023-10-27T04:58:31.827Z,10.51
2023-10-27T04:59:31.932Z,10.53
2023-10-27T05:00:32.098Z,10.57
2023-10-27T05:01:32.316Z,10.55
2023-10-27T05:02:32.525Z,10.55
2023-10-27T05:03:32.673Z,10.55
2023-10-27T05:04:32.878Z,10.55
2023-10-27T05:05:32.934Z,10.57
2023-10-27T05:06:33.056Z,10.59
2023-10-27T05:07:33.246Z,10.61
2023-10-27T05:08:33.348Z,10.64
2023-10-27T05:09:33.510Z,10.64
2023-10-27T05:10:33.682Z,10.68
2023-10-27T05:11:33.829Z,10.71
2023-10-27T05:12:34.072Z,10.71
2023-10-27T05:13:34.234Z,10.69
2023-10-27T05:14:34.363Z,10.69
2023-10-27T05:15:34.522Z,10.65
2023-10-27T05:16:34.698Z,10.65
2023-10-27T05:17:34.855Z,10.69
2023-10-27T05:18:34.994Z,10.68
2023-10-27T05:19:35.159Z,10.65
2023-10-27T05:20:35.307Z,10.62
2023-10-27T05:21:35.448Z,10.62
2023-10-27T05:22:35.710Z,10.64
2023-10-27T05:23:35.837Z,10.65
2023-10-27T05:24:36.010Z,10.64
2023-10-27T05:25:36.214Z,10.62
2023-10-27T05:26:36.367Z,10.61
2023-10-27T05:27:36.531Z,10.62
2023-10-27T05:28:36.766Z,10.64
2023-10-27T05:29:36.825Z,10.67
2023-10-27T05:30:36.974Z,10.64
2023-10-27T05:31:37.181Z,10.64
2023-10-27T05:32:37.353Z,10.62
2023-10-27T05:33:37.505Z,10.59
2023-10-27T05:34:37.717Z,10.58
2023-10-27T05:35:37.761Z,10.59
2023-10-27T05:36:37.916Z,10.61
2023-10-27T05:37:38.090Z,10.62
2023-10-27T05:38:38.223Z,10.59
2023-10-27T05:39:38.384Z,10.58
2023-10-27T05:40:38.574Z,10.59
2023-10-27T05:41:38.710Z,10.58
2023-10-27T05:42:38.871Z,10.58
2023-10-27T05:43:39.077Z,10.58
2023-10-27T05:44:39.223Z,10.57
2023-10-27T05:45:39.390Z,10.53
2023-10-27T05:46:39.575Z,10.53
2023-10-27T05:47:39.712Z,10.53
2023-10-27T05:48:39.882Z,10.55
2023-10-27T05:49:40.055Z,10.57
2023-10-27T05:50:40.180Z,10.58
2023-10-27T05:51:40.334Z,10.59
2023-10-27T05:52:40.586Z,10.58
2023-10-27T05:53:40.589Z,10.58
2023-10-27T05:54:40.760Z,10.58
2023-10-27T05:55:40.855Z,10.59
2023-10-27T05:56:41.041Z,10.59
2023-10-27T05:57:41.186Z,10.61
2023-10-27T05:58:41.331Z,10.62
2023-10-27T05:59:41.548Z,10.64
2023-10-27T06:00:41.613Z,10.62
2023-10-27T06:01:41.757Z,10.64
2023-10-27T06:02:41.923Z,10.62
2023-10-27T06:03:42.083Z,10.61
2023-10-27T06:04:42.261Z,10.58
2023-10-27T06:05:42.370Z,10.58
2023-10-27T06:06:42.512Z,10.61
2023-10-27T06:07:42.664Z,10.58
2023-10-27T06:08:42.814Z,10.58
2023-10-27T06:09:43.071Z,10.58
2023-10-27T06:10:43.135Z,10.58
2023-10-27T06:11:43.334Z,10.59
2023-10-27T06:12:43.476Z,10.61
2023-10-27T06:13:43.610Z,10.62
2023-10-27T06:14:43.774Z,10.64
2023-10-27T06:15:45.597Z,10.67
2023-10-27T06:16:44.109Z,10.65
2023-10-27T06:17:44.363Z,10.64
2023-10-27T06:18:44.421Z,10.64
2023-10-27T06:19:44.933Z,10.61
2023-10-27T06:20:44.813Z,10.55
2023-10-27T06:21:44.885Z,10.53
2023-10-27T06:22:45.034Z,10.53
2023-10-27T06:23:45.164Z,10.55
2023-10-27T06:24:45.329Z,10.59
2023-10-27T06:25:45.500Z,10.62
2023-10-27T06:26:45.646Z,10.64
2023-10-27T06:27:45.785Z,10.68
2023-10-27T06:28:45.935Z,10.67
2023-10-27T06:29:46.262Z,10.68
2023-10-27T06:30:46.255Z,10.67
2023-10-27T06:31:46.384Z,10.67
2023-10-27T06:32:46.559Z,10.65
2023-10-27T06:33:46.737Z,10.65
2023-10-27T06:34:46.903Z,10.64
2023-10-27T06:35:47.058Z,10.62
2023-10-27T06:36:47.206Z,10.61
2023-10-27T06:37:47.372Z,10.61
2023-10-27T06:38:47.526Z,10.62
2023-10-27T06:39:47.679Z,10.61
2023-10-27T06:40:47.833Z,10.62
2023-10-27T06:41:47.989Z,10.61
2023-10-27T06:42:48.183Z,10.59
2023-10-27T06:43:48.338Z,10.64
2023-10-27T06:44:48.515Z,10.64
2023-10-27T06:45:48.659Z,10.64
2023-10-27T06:46:48.819Z,10.65
2023-10-27T06:47:49.046Z,10.65
2023-10-27T06:48:49.270Z,10.65
2023-10-27T06:49:49.386Z,10.67
2023-10-27T06:50:49.555Z,10.65
2023-10-27T06:51:49.746Z,10.62
2023-10-27T06:52:49.900Z,10.62
2023-10-27T06:53:50.054Z,10.64
2023-10-27T06:54:50.269Z,10.65
2023-10-27T06:55:50.416Z,10.62
2023-10-27T06:56:50.595Z,10.62
2023-10-27T06:57:50.760Z,10.64
2023-10-27T06:58:50.906Z,10.64
2023-10-27T06:59:51.064Z,10.61
2023-10-27T07:00:51.218Z,10.61
2023-10-27T07:01:51.376Z,10.59
2023-10-27T07:02:57.608Z,10.59
2023-10-27T07:03:52.719Z,10.62
2023-10-27T07:04:51.932Z,10.64
2023-10-27T07:05:51.939Z,10.64
2023-10-27T07:06:53.703Z,10.67
2023-10-27T07:07:52.363Z,10.67
2023-10-27T07:08:52.374Z,10.68
2023-10-27T07:09:52.552Z,10.68
2023-10-27T07:10:52.704Z,10.69
2023-10-27T07:11:52.916Z,10.71
2023-10-27T07:12:52.983Z,10.71
2023-10-27T07:13:53.160Z,10.69
2023-10-27T07:14:53.364Z,10.68
2023-10-27T07:15:53.530Z,10.68
2023-10-27T07:16:53.674Z,10.72
2023-10-27T07:17:53.899Z,10.75
2023-10-27T07:18:54.031Z,10.75
2023-10-27T07:19:54.255Z,10.77
2023-10-27T07:20:54.313Z,10.79
2023-10-27T07:21:54.430Z,10.80
2023-10-27T07:22:54.577Z,10.84
2023-10-27T07:23:54.747Z,10.87
2023-10-27T07:24:54.865Z,10.80
2023-10-27T07:25:55.011Z,10.77
2023-10-27T07:26:55.164Z,10.80
2023-10-27T07:27:55.328Z,10.82
2023-10-27T07:28:55.484Z,10.83
2023-10-27T07:29:55.665Z,10.80
2023-10-27T07:30:55.814Z,10.77
2023-10-27T07:31:55.967Z,10.82
2023-10-27T07:32:56.186Z,10.82
2023-10-27T07:33:56.415Z,10.76
2023-10-27T07:34:56.495Z,10.72
2023-10-27T07:35:56.920Z,10.75
2023-10-27T07:36:56.726Z,10.79
2023-10-27T07:37:56.867Z,10.83
2023-10-27T07:38:57.051Z,10.86
2023-10-27T07:39:57.155Z,10.89
2023-10-27T07:40:57.297Z,10.83
2023-10-27T07:41:57.451Z,10.83
2023-10-27T07:42:57.596Z,10.84
2023-10-27T07:43:57.781Z,10.90
2023-10-27T07:45:00.614Z,10.95
2023-10-27T07:45:58.101Z,10.90
2023-10-27T07:46:58.246Z,10.87
2023-10-27T07:47:58.388Z,10.87
2023-10-27T07:48:58.525Z,10.92
2023-10-27T07:49:58.724Z,10.89
2023-10-27T07:50:58.869Z,10.89
2023-10-27T07:51:59.018Z,10.92
2023-10-27T07:52:59.160Z,10.94
2023-10-27T07:53:59.321Z,10.95
2023-10-27T07:54:59.498Z,10.94
2023-10-27T07:55:59.643Z,10.97
2023-10-27T07:56:59.787Z,11.01
2023-10-27T07:57:59.937Z,11.00
2023-10-27T07:59:00.093Z,11.01
2023-10-27T08:00:00.255Z,11.04
2023-10-27T08:01:00.399Z,11.05
2023-10-27T08:02:01.456Z,11.04
2023-10-27T08:03:00.836Z,11.01
2023-10-27T08:04:00.881Z,11.01
2023-10-27T08:05:01.027Z,10.97
2023-10-27T08:06:01.185Z,10.92
2023-10-27T08:07:01.346Z,10.92
2023-10-27T08:08:01.518Z,10.92
2023-10-27T08:09:01.672Z,10.95
2023-10-27T08:10:01.844Z,11.01
2023-10-27T08:11:02.006Z,11.07
2023-10-27T08:12:02.159Z,11.04
2023-10-27T08:13:02.332Z,11.02
2023-10-27T08:14:02.552Z,11.02
2023-10-27T08:15:02.665Z,11.02
2023-10-27T08:16:02.890Z,11.02
2023-10-27T08:17:03.180Z,10.98
2023-10-27T08:18:03.218Z,11.01
2023-10-27T08:19:03.441Z,11.02
2023-10-27T08:20:03.579Z,11.01
2023-10-27T08:21:03.705Z,11.04
2023-10-27T08:22:03.881Z,11.02
2023-10-27T08:23:04.020Z,10.98
2023-10-27T08:24:04.205Z,10.94
2023-10-27T08:25:04.419Z,10.97
2023-10-27T08:26:04.463Z,11.00
2023-10-27T08:27:04.614Z,11.00
2023-10-27T08:28:04.806Z,11.02
2023-10-27T08:29:04.915Z,10.98
2023-10-27T08:30:05.085Z,10.98
2023-10-27T08:31:05.256Z,11.04
2023-10-27T08:32:05.400Z,11.10
2023-10-27T08:33:05.597Z,11.12
2023-10-27T08:34:05.750Z,11.12
2023-10-27T08:35:06.842Z,11.15
2023-10-27T08:36:06.000Z,11.05
2023-10-27T08:37:06.229Z,11.04
2023-10-27T08:38:06.360Z,11.04
2023-10-27T08:39:06.512Z,11.07
2023-10-27T08:40:06.720Z,11.10
2023-10-27T08:41:06.841Z,11.07
2023-10-27T08:42:06.997Z,11.07
2023-10-27T08:43:07.181Z,11.04
2023-10-27T08:44:24.201Z,11.07
2023-10-27T08:45:08.440Z,11.10
2023-10-27T08:46:07.621Z,11.07
2023-10-27T08:47:07.777Z,11.04
2023-10-27T08:48:08.546Z,11.08
2023-10-27T08:49:08.049Z,11.12
2023-10-27T08:50:08.205Z,11.10
2023-10-27T08:51:08.342Z,11.10
2023-10-27T08:52:08.562Z,11.08
2023-10-27T08:53:08.672Z,11.05
2023-10-27T08:54:10.520Z,11.08
2023-10-27T08:55:09.034Z,11.08
2023-10-27T08:56:09.166Z,11.15
2023-10-27T08:57:09.302Z,11.13
2023-10-27T08:58:09.500Z,11.10
2023-10-27T08:59:09.613Z,11.10
2023-10-27T09:00:09.768Z,11.12
2023-10-27T09:01:09.952Z,11.07
2023-10-27T09:02:10.064Z,11.07
2023-10-27T09:03:10.211Z,11.04
2023-10-27T09:04:10.468Z,11.05
2023-10-27T09:05:10.674Z,11.08
2023-10-27T09:06:10.714Z,11.12
2023-10-27T09:07:10.904Z,11.13
2023-10-27T09:08:10.989Z,11.13
2023-10-27T09:09:11.140Z,11.15
2023-10-27T09:10:11.325Z,11.08
2023-10-27T09:11:11.454Z,11.05
2023-10-27T09:12:11.608Z,11.07
2023-10-27T09:13:11.780Z,11.07
2023-10-27T09:14:11.979Z,11.08
2023-10-27T09:15:12.000Z,11.12
2023-10-27T09:16:12.247Z,11.15
2023-10-27T09:17:12.263Z,11.18
2023-10-27T09:18:12.483Z,11.20
2023-10-27T09:19:12.509Z,11.23
2023-10-27T09:20:12.699Z,11.12
2023-10-27T09:21:12.842Z,11.08
2023-10-27T09:22:13.032Z,11.05
2023-10-27T09:23:13.147Z,11.01
2023-10-27T09:24:13.309Z,11.00
2023-10-27T09:25:13.547Z,10.97
2023-10-27T09:26:13.660Z,10.97
2023-10-27T09:27:13.819Z,10.98
2023-10-27T09:28:13.995Z,10.98
2023-10-27T09:29:14.129Z,11.00
2023-10-27T09:30:14.299Z,11.04
2023-10-27T09:31:14.460Z,11.07
2023-10-27T09:32:14.579Z,11.10
2023-10-27T09:33:14.837Z,11.05
2023-10-27T09:34:14.939Z,11.02
2023-10-27T09:35:15.255Z,11.00
2023-10-27T09:36:15.247Z,11.02
2023-10-27T09:37:15.442Z,11.05
2023-10-27T09:38:15.564Z,11.05
2023-10-27T09:39:15.719Z,11.02
2023-10-27T09:40:15.897Z,11.04
2023-10-27T09:41:17.028Z,11.02
2023-10-27T09:42:16.179Z,11.07
2023-10-27T09:43:16.364Z,11.13
2023-10-27T09:44:16.508Z,11.16
2023-10-27T09:45:16.728Z,11.20
2023-10-27T09:46:16.858Z,11.08
2023-10-27T09:47:16.989Z,11.08
2023-10-27T09:48:17.214Z,11.05
2023-10-27T09:49:19.342Z,11.07
2023-10-27T09:50:17.488Z,11.10
2023-10-27T09:51:17.673Z,11.10
2023-10-27T09:52:17.883Z,11.15
2023-10-27T09:53:17.994Z,11.18
2023-10-27T09:54:18.195Z,11.20
2023-10-27T09:55:18.297Z,11.25
2023-10-27T09:56:18.419Z,11.25
2023-10-27T09:57:18.559Z,11.18
2023-10-27T09:58:18.735Z,11.13
2023-10-27T09:59:18.899Z,11.12
2023-10-27T10:00:19.059Z,11.12
2023-10-27T10:01:19.225Z,11.13
2023-10-27T10:02:19.354Z,11.19
2023-10-27T10:03:19.599Z,11.25
2023-10-27T10:04:19.719Z,11.26
2023-10-27T10:05:19.847Z,11.26
2023-10-27T10:06:19.954Z,11.23
2023-10-27T10:07:20.148Z,11.20
2023-10-27T10:08:20.262Z,11.20
2023-10-27T10:09:20.426Z,11.18
2023-10-27T10:10:20.603Z,11.10
2023-10-27T10:11:20.726Z,11.08
2023-10-27T10:12:20.880Z,11.10
2023-10-27T10:13:21.066Z,11.12
2023-10-27T10:14:21.180Z,11.16
2023-10-27T10:15:21.326Z,11.20
2023-10-27T10:16:21.477Z,11.27
2023-10-27T10:17:21.620Z,11.30
2023-10-27T10:18:21.769Z,11.31
2023-10-27T10:19:21.949Z,11.34
2023-10-27T10:20:22.066Z,11.35
2023-10-27T10:21:22.201Z,11.22
2023-10-27T10:22:22.364Z,11.26
2023-10-27T10:23:22.479Z,11.26
2023-10-27T10:24:22.744Z,11.22
2023-10-27T10:25:22.846Z,11.23
2023-10-27T10:26:22.990Z,11.20
2023-10-27T10:27:23.116Z,11.16
2023-10-27T10:28:23.330Z,11.12
2023-10-27T10:29:23.461Z,11.13
2023-10-27T10:30:23.710Z,11.15
2023-10-27T10:31:23.900Z,11.15
2023-10-27T10:32:24.049Z,11.15
2023-10-27T10:33:24.266Z,11.15
2023-10-27T10:34:24.438Z,11.18
2023-10-27T10:35:24.683Z,11.23
2023-10-27T10:36:24.838Z,11.23
2023-10-27T10:37:24.923Z,11.23
2023-10-27T10:38:25.046Z,11.25
2023-10-27T10:39:25.212Z,11.27
2023-10-27T10:40:25.517Z,11.30
2023-10-27T10:41:25.614Z,11.33
2023-10-27T10:42:25.790Z,11.34
2023-10-27T10:43:26.093Z,11.34
2023-10-27T10:44:26.172Z,11.34
2023-10-27T10:45:26.326Z,11.27
2023-10-27T10:46:26.530Z,11.26
2023-10-27T10:47:26.738Z,11.30
2023-10-27T10:48:27.054Z,11.33
2023-10-27T10:49:29.356Z,11.33
2023-10-27T10:50:27.195Z,11.34
2023-10-27T10:51:27.638Z,11.33
2023-10-27T10:52:27.545Z,11.33
2023-10-27T10:53:27.648Z,11.37
2023-10-27T10:54:27.814Z,11.38
2023-10-27T10:55:28.016Z,11.38
2023-10-27T10:56:28.112Z,11.43
2023-10-27T10:57:28.258Z,11.45
2023-10-27T10:58:28.470Z,11.45
2023-10-27T10:59:28.620Z,11.40
2023-10-27T11:00:28.754Z,11.40
2023-10-27T11:01:28.922Z,11.38
2023-10-27T11:02:29.068Z,11.38
2023-10-27T11:03:29.270Z,11.38
2023-10-27T11:04:41.327Z,11.34
2023-10-27T11:05:30.620Z,11.31
2023-10-27T11:06:29.766Z,11.26
2023-10-27T11:07:29.920Z,11.26
2023-10-27T11:08:29.967Z,11.30
2023-10-27T11:09:30.141Z,11.30
2023-10-27T11:10:30.341Z,11.27
2023-10-27T11:11:45.335Z,11.22
2023-10-27T11:12:31.621Z,11.26
2023-10-27T11:13:30.765Z,11.26
2023-10-27T11:14:30.905Z,11.27
2023-10-27T11:15:31.066Z,11.20
2023-10-27T11:16:31.232Z,11.19
2023-10-27T11:17:31.426Z,11.19
2023-10-27T11:18:31.565Z,11.22
2023-10-27T11:19:31.774Z,11.26
2023-10-27T11:20:31.783Z,11.31
2023-10-27T11:21:31.918Z,11.34
2023-10-27T11:22:32.142Z,11.33
2023-10-27T11:23:32.267Z,11.33
2023-10-27T11:24:32.419Z,11.31
2023-10-27T11:25:32.624Z,11.34
2023-10-27T11:26:32.770Z,11.37
2023-10-27T11:27:32.911Z,11.38
2023-10-27T11:28:33.086Z,11.38
2023-10-27T11:29:33.244Z,11.37
2023-10-27T11:30:33.381Z,11.38
2023-10-27T11:31:33.557Z,11.44
2023-10-27T11:32:33.786Z,11.49
2023-10-27T11:33:33.861Z,11.44
2023-10-27T11:34:36.773Z,11.44
2023-10-27T11:35:34.146Z,11.45
2023-10-27T11:36:34.318Z,11.45
2023-10-27T11:37:34.547Z,11.49
2023-10-27T11:38:34.592Z,11.51
2023-10-27T11:39:34.792Z,11.55
2023-10-27T11:40:34.920Z,11.58
2023-10-27T11:41:35.112Z,11.52
2023-10-27T11:42:35.215Z,11.48
2023-10-27T11:43:35.384Z,11.45
2023-10-27T11:44:35.556Z,11.45
2023-10-27T11:45:35.728Z,11.48
2023-10-27T11:46:35.949Z,11.49
2023-10-27T11:47:36.021Z,11.48
2023-10-27T11:48:36.280Z,11.45
2023-10-27T11:49:36.425Z,11.44
2023-10-27T11:50:36.501Z,11.41
2023-10-27T11:51:36.593Z,11.43
2023-10-27T11:52:36.786Z,11.44
2023-10-27T11:53:36.895Z,11.43
2023-10-27T11:54:37.049Z,11.41
2023-10-27T11:55:37.254Z,11.44
2023-10-27T11:56:37.385Z,11.41
2023-10-27T11:57:37.542Z,11.43
2023-10-27T11:58:37.697Z,11.37
2023-10-27T11:59:37.841Z,11.35
2023-10-27T12:00:37.998Z,11.33
2023-10-27T12:01:38.187Z,11.31
2023-10-27T12:02:38.462Z,11.30
2023-10-27T12:03:38.466Z,11.27
2023-10-27T12:04:38.665Z,11.25
2023-10-27T12:05:38.826Z,11.25
2023-10-27T12:06:38.941Z,11.22
2023-10-27T12:07:39.129Z,11.25
2023-10-27T12:08:39.267Z,11.30
2023-10-27T12:09:39.418Z,11.34
2023-10-27T12:10:39.591Z,11.31
2023-10-27T12:11:39.726Z,11.30
2023-10-27T12:12:39.861Z,11.30
2023-10-27T12:13:40.025Z,11.31
2023-10-27T12:14:40.183Z,11.31
2023-10-27T12:15:40.340Z,11.35
2023-10-27T12:16:40.509Z,11.34
2023-10-27T12:17:40.676Z,11.33
2023-10-27T12:18:40.813Z,11.23
2023-10-27T12:19:40.980Z,11.22
2023-10-27T12:20:41.188Z,11.22
2023-10-27T12:21:42.198Z,11.26
2023-10-27T12:22:41.376Z,11.33
2023-10-27T12:23:41.499Z,11.34
2023-10-27T12:24:41.701Z,11.33
2023-10-27T12:25:41.951Z,11.35
2023-10-27T12:26:41.999Z,11.40
2023-10-27T12:27:42.173Z,11.35
2023-10-27T12:28:42.510Z,11.33
2023-10-27T12:29:42.501Z,11.34
2023-10-27T12:30:42.657Z,11.34
2023-10-27T12:31:42.892Z,11.33
2023-10-27T12:32:43.007Z,11.26
2023-10-27T12:33:43.211Z,11.23
2023-10-27T12:34:43.467Z,11.19
2023-10-27T12:35:43.469Z,11.18
2023-10-27T12:36:43.598Z,11.20
2023-10-27T12:37:43.772Z,11.20
2023-10-27T12:38:43.896Z,11.23
2023-10-27T12:39:44.072Z,11.27
2023-10-27T12:40:44.237Z,11.26
2023-10-27T12:41:44.367Z,11.26
2023-10-27T12:42:44.512Z,11.26
2023-10-27T12:43:44.709Z,11.23
2023-10-27T12:44:45.005Z,11.31
2023-10-27T12:45:45.003Z,11.37
2023-10-27T12:46:45.169Z,11.48
2023-10-27T12:47:45.322Z,11.51
2023-10-27T12:48:45.439Z,11.49
2023-10-27T12:49:45.695Z,11.48
2023-10-27T12:50:45.699Z,11.53
2023-10-27T12:51:45.853Z,11.58
2023-10-27T12:52:46.038Z,11.58
2023-10-27T12:53:46.141Z,11.60
2023-10-27T12:54:46.485Z,11.67